createdAt,value
2019-02-26T00:00:47.302Z,1.47
2019-02-26T00:03:14.506Z,1.47
2019-02-26T00:05:41.547Z,1.47
2019-02-26T00:08:08.583Z,1.45
2019-02-26T00:10:38.508Z,1.41
2019-02-26T00:13:04.588Z,1.37
2019-02-26T00:15:35.576Z,1.36
2019-02-26T00:18:00.690Z,1.34
2019-02-26T00:20:29.649Z,1.31
2019-02-26T00:22:57.626Z,1.30
2019-02-26T00:25:25.673Z,1.27
2019-02-26T00:27:54.635Z,1.25
2019-02-26T00:30:21.638Z,1.20
2019-02-26T00:32:48.694Z,1.15
2019-02-26T00:35:16.502Z,1.11
2019-02-26T00:37:46.474Z,1.06
2019-02-26T00:40:14.534Z,1.00
2019-02-26T00:42:42.582Z,0.97
2019-02-26T00:45:09.694Z,0.94
2019-02-26T00:47:38.704Z,0.92
2019-02-26T00:50:07.384Z,0.92
2019-02-26T00:52:37.038Z,0.92
2019-02-26T00:55:05.395Z,0.86
2019-02-26T00:57:33.965Z,0.86
2019-02-26T01:00:03.397Z,0.93
2019-02-26T01:02:31.227Z,0.93
2019-02-26T01:04:58.285Z,0.95
2019-02-26T01:07:26.115Z,0.95
2019-02-26T01:09:55.209Z,0.95
2019-02-26T01:12:23.222Z,0.89
2019-02-26T01:14:50.387Z,0.92
2019-02-26T01:17:18.816Z,0.92
2019-02-26T01:19:46.054Z,0.89
2019-02-26T01:22:13.104Z,0.88
2019-02-26T01:24:40.158Z,0.87
2019-02-26T01:27:07.215Z,0.86
2019-02-26T01:29:34.253Z,0.84
2019-02-26T01:32:02.207Z,0.83
2019-02-26T01:34:29.353Z,0.75
2019-02-26T01:36:56.404Z,0.75
2019-02-26T01:39:23.487Z,0.72
2019-02-26T01:41:53.195Z,0.81
2019-02-26T01:44:19.492Z,0.82
2019-02-26T01:46:46.549Z,0.81
2019-02-26T01:49:13.748Z,0.82
2019-02-26T01:51:42.728Z,0.82
2019-02-26T01:54:11.768Z,0.83
2019-02-26T01:56:38.773Z,0.85
2019-02-26T01:59:05.835Z,0.90
2019-02-26T02:01:32.918Z,0.94
2019-02-26T02:04:00.008Z,0.95
2019-02-26T02:06:27.062Z,0.96
2019-02-26T02:08:55.745Z,0.97
2019-02-26T02:11:23.874Z,0.97
2019-02-26T02:13:51.979Z,0.99
2019-02-26T02:16:19.043Z,0.99
2019-02-26T02:18:48.379Z,1.01
2019-02-26T02:21:15.087Z,1.00
2019-02-26T02:23:43.856Z,0.98
2019-02-26T02:26:13.224Z,0.95
2019-02-26T02:28:40.083Z,0.92
2019-02-26T02:31:07.155Z,0.91
2019-02-26T02:33:35.419Z,0.89
2019-02-26T02:36:03.166Z,0.90
2019-02-26T02:38:30.205Z,0.86
2019-02-26T02:40:57.286Z,0.86
2019-02-26T02:43:24.349Z,0.90
2019-02-26T02:45:53.119Z,0.88
2019-02-26T02:48:20.316Z,0.88
2019-02-26T02:50:47.350Z,0.87
2019-02-26T02:53:14.424Z,0.79
2019-02-26T02:55:44.281Z,0.82
2019-02-26T02:58:13.081Z,0.82
2019-02-26T03:00:39.376Z,0.82
2019-02-26T03:03:06.449Z,0.82
2019-02-26T03:05:35.130Z,0.80
2019-02-26T03:08:02.480Z,0.78
2019-02-26T03:10:33.535Z,0.77
2019-02-26T03:13:00.416Z,0.78
2019-02-26T03:15:29.453Z,0.77
2019-02-26T03:17:56.343Z,0.77
2019-02-26T03:20:24.743Z,0.76
2019-02-26T03:22:52.361Z,0.76
2019-02-26T03:25:23.054Z,0.77
2019-02-26T03:27:48.350Z,0.73
2019-02-26T03:30:26.086Z,0.73
2019-02-26T03:32:47.301Z,0.76
2019-02-26T03:35:16.688Z,0.76
2019-02-26T03:37:43.770Z,0.75
2019-02-26T03:40:11.023Z,0.75
2019-02-26T03:42:39.038Z,0.73
2019-02-26T03:45:08.491Z,0.73
2019-02-26T03:47:35.548Z,0.72
2019-02-26T03:50:02.825Z,0.71
2019-02-26T03:52:32.143Z,0.72
2019-02-26T03:54:58.826Z,0.69
2019-02-26T03:57:26.060Z,0.67
2019-02-26T03:59:53.125Z,0.72
2019-02-26T04:02:23.319Z,0.68
2019-02-26T04:04:54.037Z,0.70
2019-02-26T04:07:18.064Z,0.68
2019-02-26T04:09:47.289Z,0.64
2019-02-26T04:12:15.412Z,0.63
2019-02-26T04:14:43.058Z,0.62
2019-02-26T04:17:10.086Z,0.62
2019-02-26T04:19:37.119Z,0.63
2019-02-26T04:22:49.876Z,0.67
2019-02-26T04:25:38.246Z,0.67
2019-02-26T04:28:13.816Z,0.65
2019-02-26T04:31:46.414Z,0.64
2019-02-26T04:34:48.606Z,0.64
2019-02-26T04:37:53.132Z,0.58
2019-02-26T04:41:03.085Z,0.58
2019-02-26T04:44:03.809Z,0.63
2019-02-26T04:46:57.182Z,0.64
2019-02-26T04:49:27.379Z,0.65
2019-02-26T04:51:54.266Z,0.65
2019-02-26T04:54:24.291Z,0.62
2019-02-26T04:56:51.002Z,0.65
2019-02-26T04:59:18.189Z,0.65
2019-02-26T05:01:47.215Z,0.65
2019-02-26T05:04:14.418Z,0.65
2019-02-26T05:06:41.479Z,0.67
2019-02-26T05:09:10.512Z,0.59
2019-02-26T05:11:40.601Z,0.68
2019-02-26T05:14:07.207Z,0.68
2019-02-26T05:16:37.796Z,0.68
2019-02-26T05:19:04.365Z,0.68
2019-02-26T05:21:34.892Z,0.68
2019-02-26T05:24:02.903Z,0.71
2019-02-26T05:26:30.319Z,0.76
2019-02-26T05:28:57.592Z,0.80
2019-02-26T05:31:24.654Z,0.82
2019-02-26T05:33:54.223Z,0.85
2019-02-26T05:36:20.688Z,0.88
2019-02-26T05:38:49.379Z,0.90
2019-02-26T05:41:16.698Z,0.92
2019-02-26T05:43:49.291Z,0.94
2019-02-26T05:46:12.705Z,0.92
2019-02-26T05:48:40.696Z,0.91
2019-02-26T05:51:09.349Z,0.90
2019-02-26T05:53:37.698Z,0.89
2019-02-26T05:56:04.763Z,0.91
2019-02-26T05:58:33.613Z,0.93
2019-02-26T06:01:00.758Z,0.94
2019-02-26T06:03:27.818Z,0.96
2019-02-26T06:05:57.293Z,0.98
2019-02-26T06:08:26.698Z,0.98
2019-02-26T06:10:52.844Z,0.99
2019-02-26T06:13:19.906Z,0.99
2019-02-26T06:15:46.958Z,1.01
2019-02-26T06:18:14.020Z,1.02
2019-02-26T06:20:41.060Z,1.07
2019-02-26T06:23:08.138Z,1.11
2019-02-26T06:25:35.187Z,1.16
2019-02-26T06:28:06.680Z,1.19
2019-02-26T06:30:31.231Z,1.40
2019-02-26T06:33:02.025Z,2.28
2019-02-26T06:35:27.256Z,3.30
2019-02-26T06:37:54.300Z,4.02
2019-02-26T06:40:21.322Z,4.52
2019-02-26T06:42:48.377Z,4.87
2019-02-26T06:45:16.537Z,4.91
2019-02-26T06:47:45.654Z,4.80
2019-02-26T06:50:13.815Z,4.92
2019-02-26T06:52:43.013Z,4.96
2019-02-26T06:55:10.887Z,4.82
2019-02-26T06:57:39.170Z,4.65
2019-02-26T07:00:09.339Z,4.48
2019-02-26T07:02:36.367Z,4.53
2019-02-26T07:05:03.751Z,4.95
2019-02-26T07:07:30.817Z,5.52
2019-02-26T07:09:58.244Z,5.68
2019-02-26T07:12:26.493Z,5.78
2019-02-26T07:14:55.473Z,5.65
2019-02-26T07:17:22.560Z,5.31
2019-02-26T07:19:51.239Z,5.01
2019-02-26T07:22:18.535Z,4.77
2019-02-26T07:24:48.314Z,4.57
2019-02-26T07:27:14.499Z,4.45
2019-02-26T07:29:42.882Z,4.38
2019-02-26T07:32:12.297Z,4.32
2019-02-26T07:34:40.435Z,4.31
2019-02-26T07:37:09.310Z,4.48
2019-02-26T07:39:37.335Z,4.68
2019-02-26T07:42:04.416Z,4.88
2019-02-26T07:44:31.460Z,4.95
2019-02-26T07:47:00.626Z,4.98
2019-02-26T07:49:27.454Z,5.04
2019-02-26T07:51:56.087Z,5.07
2019-02-26T07:54:23.438Z,5.06
2019-02-26T07:56:52.608Z,5.08
2019-02-26T07:59:27.387Z,5.08
2019-02-26T08:01:49.751Z,5.21
2019-02-26T08:04:18.397Z,5.74
2019-02-26T08:06:45.588Z,6.23
2019-02-26T08:09:14.537Z,6.39
2019-02-26T08:11:43.792Z,6.35
2019-02-26T08:14:10.714Z,6.30
2019-02-26T08:16:37.773Z,6.34
2019-02-26T08:19:04.820Z,6.41
2019-02-26T08:21:31.884Z,6.62
2019-02-26T08:23:58.910Z,7.04
2019-02-26T08:26:26.734Z,7.23
2019-02-26T08:28:53.844Z,7.26
2019-02-26T08:31:23.117Z,7.29
2019-02-26T08:33:51.709Z,7.30
2019-02-26T08:36:18.746Z,7.27
2019-02-26T08:38:45.830Z,7.28
2019-02-26T08:41:12.864Z,7.30
2019-02-26T08:43:42.114Z,7.26
2019-02-26T08:46:10.022Z,7.19
2019-02-26T08:48:39.454Z,7.21
2019-02-26T08:51:09.031Z,7.23
2019-02-26T08:53:35.785Z,7.26
2019-02-26T08:56:04.061Z,7.35
2019-02-26T08:58:31.198Z,7.42
2019-02-26T09:00:58.243Z,7.52
2019-02-26T09:03:25.285Z,7.66
2019-02-26T09:05:53.923Z,7.74
2019-02-26T09:08:21.310Z,7.80
2019-02-26T09:10:48.664Z,7.88
2019-02-26T09:13:16.461Z,7.97
2019-02-26T09:15:44.668Z,8.09
2019-02-26T09:18:11.703Z,8.18
2019-02-26T09:20:38.749Z,8.29
2019-02-26T09:23:05.924Z,8.35
2019-02-26T09:25:33.990Z,8.43
2019-02-26T09:28:01.169Z,8.50
2019-02-26T09:30:30.908Z,8.59
2019-02-26T09:32:59.072Z,8.66
2019-02-26T09:35:28.855Z,8.73
2019-02-26T09:37:57.778Z,8.81
2019-02-26T09:40:26.605Z,8.89
2019-02-26T09:42:55.096Z,8.96
2019-02-26T09:45:25.380Z,9.05
2019-02-26T09:47:54.323Z,9.13
2019-02-26T09:50:22.561Z,9.21
2019-02-26T09:52:50.812Z,9.26
2019-02-26T09:55:20.799Z,9.36
2019-02-26T09:57:47.851Z,9.44
2019-02-26T10:00:16.977Z,9.54
2019-02-26T10:02:45.217Z,9.67
2019-02-26T10:05:15.856Z,9.79
2019-02-26T10:07:42.726Z,9.93
2019-02-26T10:10:14.024Z,10.09
2019-02-26T10:12:40.727Z,10.31
2019-02-26T10:15:08.167Z,10.52
2019-02-26T10:17:37.560Z,10.70
2019-02-26T10:20:09.172Z,10.91
2019-02-26T10:22:36.316Z,11.09
2019-02-26T10:25:04.749Z,11.21
2019-02-26T10:27:35.760Z,11.33
2019-02-26T10:30:02.846Z,11.52
2019-02-26T10:32:29.702Z,11.68
2019-02-26T10:34:56.747Z,11.86
2019-02-26T10:37:23.811Z,12.04
2019-02-26T10:39:52.244Z,12.19
2019-02-26T10:42:19.803Z,12.31
2019-02-26T10:44:46.875Z,12.48
2019-02-26T10:47:13.937Z,12.76
2019-02-26T10:49:41.019Z,12.92
2019-02-26T10:52:10.873Z,12.92
2019-02-26T10:54:40.348Z,13.04
2019-02-26T10:57:07.488Z,13.21
2019-02-26T10:59:34.939Z,13.21
2019-02-26T11:02:03.146Z,13.30
2019-02-26T11:04:34.817Z,13.68
2019-02-26T11:07:01.684Z,13.68
2019-02-26T11:09:29.892Z,13.70
2019-02-26T11:11:58.417Z,13.46
2019-02-26T11:14:26.299Z,13.46
2019-02-26T11:16:53.364Z,13.30
2019-02-26T11:19:20.424Z,13.22
2019-02-26T11:21:50.034Z,13.46
2019-02-26T11:24:17.005Z,13.71
2019-02-26T11:26:44.087Z,13.71
2019-02-26T11:29:11.141Z,13.89
2019-02-26T11:31:39.626Z,14.08
2019-02-26T11:34:10.257Z,14.29
2019-02-26T11:36:38.367Z,14.51
2019-02-26T11:39:06.913Z,14.70
2019-02-26T11:41:35.919Z,14.83
2019-02-26T11:44:07.348Z,14.86
2019-02-26T11:46:34.311Z,14.90
2019-02-26T11:49:00.989Z,14.89
2019-02-26T11:51:36.793Z,14.89
2019-02-26T11:53:56.997Z,15.04
2019-02-26T11:56:25.777Z,15.17
2019-02-26T11:58:53.029Z,15.35
2019-02-26T12:01:20.107Z,15.37
2019-02-26T12:03:47.151Z,15.37
2019-02-26T12:06:14.243Z,15.33
2019-02-26T12:08:43.114Z,15.28
2019-02-26T12:11:16.518Z,15.43
2019-02-26T12:13:40.093Z,15.66
2019-02-26T12:16:08.235Z,15.76
2019-02-26T12:18:36.832Z,15.73
2019-02-26T12:21:05.961Z,15.79
2019-02-26T12:23:34.420Z,15.93
2019-02-26T12:26:03.938Z,15.92
2019-02-26T12:28:34.164Z,15.90
2019-02-26T12:31:01.378Z,15.96
2019-02-26T12:33:32.324Z,16.21
2019-02-26T12:35:59.532Z,16.20
2019-02-26T12:38:26.916Z,16.17
2019-02-26T12:40:53.977Z,16.17
2019-02-26T12:43:21.021Z,16.18
2019-02-26T12:45:48.146Z,16.35
2019-02-26T12:48:19.150Z,16.40
2019-02-26T12:50:44.225Z,16.38
2019-02-26T12:53:12.622Z,16.31
2019-02-26T12:55:42.155Z,16.37
2019-02-26T12:58:10.648Z,16.29
2019-02-26T13:00:41.290Z,16.08
2019-02-26T13:03:09.322Z,16.05
2019-02-26T13:05:38.415Z,16.00
2019-02-26T13:08:06.154Z,15.95
2019-02-26T13:10:33.954Z,15.88
2019-02-26T13:13:03.945Z,15.77
2019-02-26T13:15:30.023Z,15.69
2019-02-26T13:17:57.093Z,15.59
2019-02-26T13:20:24.176Z,15.56
2019-02-26T13:22:56.446Z,15.56
2019-02-26T13:25:21.580Z,15.59
2019-02-26T13:27:49.164Z,15.71
2019-02-26T13:30:18.195Z,15.74
2019-02-26T13:33:04.759Z,15.67
2019-02-26T13:35:14.203Z,15.68
2019-02-26T13:37:42.435Z,15.67
2019-02-26T13:40:12.011Z,15.63
2019-02-26T13:42:39.085Z,15.67
2019-02-26T13:45:07.752Z,15.69
2019-02-26T13:47:34.795Z,15.69
2019-02-26T13:50:01.849Z,15.60
2019-02-26T13:52:28.921Z,15.52
2019-02-26T13:54:55.993Z,15.54
2019-02-26T13:57:23.054Z,15.62
2019-02-26T13:59:50.234Z,15.75
2019-02-26T14:02:17.313Z,15.69
2019-02-26T14:04:44.507Z,15.46
2019-02-26T14:07:11.566Z,15.21
2019-02-26T14:09:38.639Z,15.08
2019-02-26T14:12:05.703Z,15.01
2019-02-26T14:14:32.785Z,15.00
2019-02-26T14:16:59.843Z,15.13
2019-02-26T14:19:26.905Z,15.43
2019-02-26T14:21:53.987Z,15.69
2019-02-26T14:24:21.044Z,15.78
2019-02-26T14:26:48.436Z,15.75
2019-02-26T14:29:15.492Z,15.61
2019-02-26T14:31:42.576Z,15.41
2019-02-26T14:34:09.641Z,15.22
2019-02-26T14:36:36.745Z,15.08
2019-02-26T14:39:04.760Z,14.93
2019-02-26T14:41:31.819Z,14.76
2019-02-26T14:43:58.906Z,14.62
2019-02-26T14:46:25.968Z,14.49
2019-02-26T14:48:53.038Z,14.38
2019-02-26T14:51:20.102Z,14.28
2019-02-26T14:53:49.075Z,14.20
2019-02-26T14:56:16.220Z,14.18
2019-02-26T14:58:43.290Z,14.12
2019-02-26T15:01:10.332Z,14.03
2019-02-26T15:03:37.406Z,13.95
2019-02-26T15:06:04.468Z,13.84
2019-02-26T15:08:31.522Z,13.75
2019-02-26T15:10:58.574Z,13.66
2019-02-26T15:13:25.663Z,13.60
2019-02-26T15:15:52.713Z,13.54
2019-02-26T15:18:19.753Z,13.44
2019-02-26T15:20:47.020Z,13.31
2019-02-26T15:23:14.066Z,13.18
2019-02-26T15:25:41.154Z,13.13
2019-02-26T15:28:08.250Z,13.09
2019-02-26T15:30:35.312Z,12.98
2019-02-26T15:33:10.818Z,12.89
2019-02-26T15:35:31.379Z,12.81
2019-02-26T15:37:58.476Z,12.66
2019-02-26T15:40:25.576Z,12.46
2019-02-26T15:42:56.079Z,12.28
2019-02-26T15:45:23.752Z,11.88
2019-02-26T15:47:50.786Z,11.88
2019-02-26T15:50:17.942Z,11.56
2019-02-26T15:52:45.028Z,11.56
2019-02-26T15:55:19.314Z,11.31
2019-02-26T15:57:46.741Z,11.16
2019-02-26T16:00:16.699Z,10.71
2019-02-26T16:02:43.778Z,10.71
2019-02-26T16:05:10.869Z,10.55
2019-02-26T16:07:37.940Z,10.36
2019-02-26T16:10:06.416Z,10.17
2019-02-26T16:12:34.014Z,10.00
2019-02-26T16:15:01.101Z,9.85
2019-02-26T16:17:28.160Z,9.73
2019-02-26T16:19:55.250Z,9.62
2019-02-26T16:22:22.343Z,9.50
2019-02-26T16:24:49.404Z,9.41
2019-02-26T16:27:16.607Z,9.32
2019-02-26T16:29:43.995Z,9.25
2019-02-26T16:32:11.068Z,9.18
2019-02-26T16:34:38.158Z,9.12
2019-02-26T16:37:07.133Z,9.02
2019-02-26T16:39:34.262Z,8.91
2019-02-26T16:42:01.418Z,8.77
2019-02-26T16:44:28.545Z,8.63
2019-02-26T16:46:55.619Z,8.52
2019-02-26T16:49:22.713Z,8.40
2019-02-26T16:51:49.847Z,8.26
2019-02-26T16:54:16.987Z,8.11
2019-02-26T16:56:44.076Z,7.96
2019-02-26T16:59:11.215Z,7.79
2019-02-26T17:01:40.253Z,7.62
2019-02-26T17:04:07.712Z,7.46
2019-02-26T17:06:35.352Z,7.32
2019-02-26T17:09:03.028Z,7.19
2019-02-26T17:11:30.132Z,7.09
2019-02-26T17:13:57.240Z,7.03
2019-02-26T17:16:24.337Z,6.97
2019-02-26T17:18:51.457Z,6.95
2019-02-26T17:21:18.602Z,6.96
2019-02-26T17:23:47.086Z,6.99
2019-02-26T17:26:14.910Z,7.02
2019-02-26T17:28:44.102Z,7.04
2019-02-26T17:31:11.034Z,7.06
2019-02-26T17:33:38.176Z,7.06
2019-02-26T17:36:05.337Z,7.05
2019-02-26T17:38:32.442Z,7.04
2019-02-26T17:40:59.530Z,7.06
2019-02-26T17:43:26.653Z,7.10
2019-02-26T17:45:53.758Z,7.16
2019-02-26T17:48:20.914Z,7.21
2019-02-26T17:50:48.085Z,7.27
2019-02-26T17:53:15.278Z,7.32
2019-02-26T17:55:42.433Z,7.35
2019-02-26T17:58:10.647Z,7.36
2019-02-26T18:00:40.136Z,7.36
2019-02-26T18:03:07.699Z,7.37
2019-02-26T18:05:40.564Z,7.37
2019-02-26T18:08:04.964Z,7.36
2019-02-26T18:10:32.332Z,7.36
2019-02-26T18:12:59.466Z,7.39
2019-02-26T18:15:26.923Z,7.44
2019-02-26T18:17:54.083Z,7.48
2019-02-26T18:20:21.340Z,7.53
2019-02-26T18:22:48.510Z,7.58
2019-02-26T18:25:16.142Z,7.64
2019-02-26T18:27:46.728Z,7.65
2019-02-26T18:30:16.322Z,7.68
2019-02-26T18:32:49.938Z,7.68
2019-02-26T18:35:12.613Z,7.70
2019-02-26T18:37:46.389Z,7.70
2019-02-26T18:40:09.794Z,7.70
2019-02-26T18:42:38.728Z,7.72
2019-02-26T18:45:09.386Z,7.71
2019-02-26T18:47:37.049Z,7.72
2019-02-26T18:50:04.322Z,7.74
2019-02-26T18:52:33.756Z,7.73
2019-02-26T18:55:01.387Z,7.71
2019-02-26T18:57:28.595Z,7.70
2019-02-26T18:59:57.747Z,7.71
2019-02-26T19:02:25.845Z,7.72
2019-02-26T19:04:53.531Z,7.70
2019-02-26T19:07:21.354Z,7.69
2019-02-26T19:09:49.324Z,7.68
2019-02-26T19:12:18.589Z,7.66
2019-02-26T19:14:46.149Z,7.61
2019-02-26T19:17:13.831Z,7.56
2019-02-26T19:19:42.069Z,7.53
2019-02-26T19:22:10.392Z,7.49
2019-02-26T19:24:39.233Z,7.49
2019-02-26T19:27:07.660Z,7.47
2019-02-26T19:29:35.808Z,7.46
2019-02-26T19:32:03.368Z,7.45
2019-02-26T19:34:31.082Z,7.46
2019-02-26T19:36:58.443Z,7.44
2019-02-26T19:39:25.966Z,7.44
2019-02-26T19:41:53.561Z,7.44
2019-02-26T19:44:20.932Z,7.42
2019-02-26T19:46:50.166Z,7.42
2019-02-26T19:49:17.972Z,7.41
2019-02-26T19:51:45.451Z,7.42
2019-02-26T19:54:12.665Z,7.42
2019-02-26T19:56:40.796Z,7.42
2019-02-26T19:59:08.567Z,7.42
2019-02-26T20:01:37.130Z,7.42
2019-02-26T20:04:04.894Z,7.40
2019-02-26T20:06:35.243Z,7.40
2019-02-26T20:09:05.817Z,7.41
2019-02-26T20:11:34.935Z,7.40
2019-02-26T20:14:04.849Z,7.38
2019-02-26T20:16:31.611Z,7.36
2019-02-26T20:19:01.349Z,7.36
2019-02-26T20:21:29.296Z,7.34
2019-02-26T20:23:56.632Z,7.31
2019-02-26T20:26:23.882Z,7.32
2019-02-26T20:28:51.223Z,7.31
2019-02-26T20:31:21.472Z,7.29
2019-02-26T20:33:49.708Z,7.30
2019-02-26T20:36:17.765Z,7.32
2019-02-26T20:38:45.878Z,7.31
2019-02-26T20:41:13.062Z,7.30
2019-02-26T20:43:40.291Z,7.30
2019-02-26T20:46:07.607Z,7.30
2019-02-26T20:48:36.756Z,7.28
2019-02-26T20:51:05.962Z,7.25
2019-02-26T20:53:33.149Z,7.23
2019-02-26T20:56:00.372Z,7.18
2019-02-26T20:58:27.635Z,7.15
2019-02-26T21:00:58.794Z,7.11
2019-02-26T21:03:26.366Z,7.13
2019-02-26T21:05:53.854Z,7.12
2019-02-26T21:08:20.984Z,7.09
2019-02-26T21:10:48.740Z,7.08
2019-02-26T21:13:16.143Z,7.04
2019-02-26T21:15:44.675Z,7.03
2019-02-26T21:18:12.330Z,7.01
2019-02-26T21:20:41.103Z,7.01
2019-02-26T21:23:08.905Z,7.01
2019-02-26T21:25:36.624Z,7.00
2019-02-26T21:28:03.739Z,6.99
2019-02-26T21:30:30.889Z,6.97
2019-02-26T21:32:58.698Z,6.95
2019-02-26T21:35:25.977Z,6.94
2019-02-26T21:37:53.080Z,6.93
2019-02-26T21:40:20.180Z,6.91
2019-02-26T21:42:47.308Z,6.92
2019-02-26T21:45:16.143Z,6.93
2019-02-26T21:47:43.469Z,6.94
2019-02-26T21:50:10.900Z,6.92
2019-02-26T21:52:42.103Z,6.91
2019-02-26T21:55:09.084Z,6.89
2019-02-26T21:57:36.199Z,6.89
2019-02-26T22:00:05.490Z,6.89
2019-02-26T22:02:32.876Z,6.87
2019-02-26T22:04:59.952Z,6.87
2019-02-26T22:07:27.034Z,6.85
2019-02-26T22:09:54.108Z,6.84
2019-02-26T22:12:21.858Z,6.83
2019-02-26T22:14:50.124Z,6.81
2019-02-26T22:17:17.178Z,6.79
2019-02-26T22:19:44.239Z,6.77
2019-02-26T22:22:11.299Z,6.75
2019-02-26T22:24:40.536Z,6.74
2019-02-26T22:27:07.284Z,6.72
2019-02-26T22:29:36.323Z,6.72
2019-02-26T22:32:03.242Z,6.69
2019-02-26T22:34:30.318Z,6.68
2019-02-26T22:36:57.350Z,6.66
2019-02-26T22:39:24.381Z,6.64
2019-02-26T22:41:51.408Z,6.62
2019-02-26T22:44:18.707Z,6.60
2019-02-26T22:46:47.418Z,6.59
2019-02-26T22:49:14.469Z,6.58
2019-02-26T22:51:41.497Z,6.59
2019-02-26T22:54:09.859Z,6.59
2019-02-26T22:56:37.396Z,6.58
2019-02-26T22:59:07.780Z,6.58
2019-02-26T23:01:37.226Z,6.56
2019-02-26T23:04:04.339Z,6.53
2019-02-26T23:06:31.748Z,6.50
2019-02-26T23:08:59.444Z,6.48
2019-02-26T23:11:31.705Z,6.46
2019-02-26T23:13:56.279Z,6.45
2019-02-26T23:16:24.606Z,6.42
2019-02-26T23:19:12.967Z,6.41
2019-02-26T23:21:41.401Z,6.38
2019-02-26T23:24:08.629Z,6.33
2019-02-26T23:26:35.689Z,6.32
2019-02-26T23:29:02.730Z,6.29
2019-02-26T23:31:32.723Z,6.28
2019-02-26T23:33:58.833Z,6.25
2019-02-26T23:36:28.591Z,6.22
2019-02-26T23:38:54.862Z,6.18
2019-02-26T23:41:21.929Z,6.18
2019-02-26T23:43:48.993Z,6.18
2019-02-26T23:46:16.043Z,6.16
2019-02-26T23:48:43.085Z,6.16
2019-02-26T23:51:10.128Z,6.16
2019-02-26T23:53:37.175Z,6.16
2019-02-26T23:56:04.217Z,6.15
2019-02-26T23:58:31.669Z,6.14
